Terminal Aerodrome Forecast
Issued by NWS

Home | Current Version | Previous Version | Text Only | Print | Product List | Glossary On
Versions: 1 2 3 4 5 6 7 8 9 10 11 12 13
000
FTUS41 KBTV 061730
TAFRUT
TAF
KRUT 061730Z 0618/0718 VRB05KT P6SM SCT050 SCT250
     FM070100 13005KT P6SM SCT250
     FM070600 13007KT P6SM OVC045
     FM071600 17011KT P6SM VCSH OVC045
      AMD LTD TO CLD VIS AND WIND=

USA.gov is the U.S. government's official web portal to all federal, state and local government web resources and services.